KHIO/HIO METAR and TAF weather

Enter ICAO airport designator
Station Type Date Time Source
KHIO METAR 2022/01/26 18:53 UTC NOAA

KHIO 261853Z 29003KT 9SM CLR 03/01 A3029 RMK AO2 SLP260 T00330006


Station Type Date Time Source
KHIO Decoded METAR 2022/01/26 18:53 UTC NOAA

PORTLAND-HILLSBORO AIRPORT, OR, United States (KHIO) 45-33N 122-57W 68M
Jan 26, 2022 - 01:53 PM EST / 2022.01.26 1853 UTC
Wind: from the WNW (290 degrees) at 3 MPH (3 KT):0
Visibility: 9 mile(s):0
Sky conditions: clear
Temperature: 37.9 F (3.3 C)
Dew Point: 33.1 F (0.6 C)
Relative Humidity: 82%
Pressure (altimeter): 30.29 in. Hg (1025 hPa)
ob: KHIO 261853Z 29003KT 9SM CLR 03/01 A3029 RMK AO2 SLP260 T00330006
cycle: 19

Station Type Date Time Source
KHIO TAF 2022/01/26 18:30 UTC NOAA

TAF KHIO 261729Z 2618/2718 VRB03KT P6SM SKC
FM271100 31005KT 1 1/2SM BR BKN020
FM271300 32005KT 3/4SM BR BKN014
FM271700 VRB04KT 1 1/2SM BR BKN020

Example: see airport list